Grand Forks, ND (58206)

5:17 PM CST on February 08, 2016 (GMT -0600)
KNDGRAND8 | | Change Station
CLOSE
Current Station
Personal Weather Station
Location: Grand Forks, ND
Elevation: 830 ft
Nearby Weather Stations
Active Advisory: Winter Weather Advisory Active Notice: Local Storm Report

Elev 830 ft 47.94 °N, 97.06 °W | Updated 55 minutes ago

Overcast
Overcast
10.8 °F
Feels Like -6 °F
N
15.9
Wind Variable Wind from NNW
Gusts 15.9 mph

Today
High -- | Low -- °F
--% Chance of Precip.
Yesterday
High -- | Low -- °F
Precip. -- in
Pressure 30.29 in
Visibility 1.5 miles
Clouds Few 1400 ft
Mostly Cloudy 1600 ft
Mostly Cloudy 3000 ft
Windchill -6 °F
Dew Point 8 °F
Humidity 88%
Rainfall 0.00 in
Snow Depth Not available.
7:46 AM 5:39 PM
New Moon, 0% visible
METAR KGFK 082253Z 35026G35KT 1 1/2SM -SN BLSN FEW014 BKN016 BKN030 M11/M15 A3023 RMK AO2 PK WND 36035/2251 TWR VIS 2 1/2 SNB21 SLP256 VIS 3/4V2 1/4 T11111150 PNO $
Pressure 30.29 in
Visibility 1.5 miles
Clouds Few 1400 ft
Mostly Cloudy 1600 ft
Mostly Cloudy 3000 ft
Windchill -6 °F
Dew Point 8 °F
Humidity 88%
Rainfall 0.00 in
Snow Depth Not available.
7:46 AM 5:39 PM
New Moon, 0% visible
METAR KGFK 082253Z 35026G35KT 1 1/2SM -SN BLSN FEW014 BKN016 BKN030 M11/M15 A3023 RMK AO2 PK WND 36035/2251 TWR VIS 2 1/2 SNB21 SLP256 VIS 3/4V2 1/4 T11111150 PNO $

10-Day Weather Forecast

Almanac

Astronomy

Feb. 08, 2016 Rise Set
Actual Time
Civil Twilight
Nautical Twilight
Astronomical Twilight
Moon
Length of Visible Light
Length of Day
Tomorrow will be .
, % of the Moon is Illuminated

Today's Extremes

State Highs State Lows

Community

WunderPhotos

Upload Photos

1,891,525 photos uploaded!

WunderBlog® & News

Nearby

Air Quality

  Air Quality AQ Index Pollutant
Not available.

Snow Depth

Station Depth Elevation

Earthquake Activity

City Distance Mag. Time & Date
Minimum magnitude displayed is 2.5.

Coastal Water Temperatures

Place Temperature

Stations

Nearby Weather Stations

Station Location Temp. Windchill Dew Point Humidity Wind Precip. Elev Updated Type
                   

Watches & Warnings

Winter Weather Advisory
Issued: 3:12 PM CST Feb. 8, 2016 – National Weather Service

... Winter Weather Advisory remains in effect until 6 PM CST this
evening...

* timing... expect snow showers and gusty winds to continue
through the afternoon.

* Winds / visibilities... winds gusting as high as 35 mph will
cause areas lower visibility to a mile or less with snow
showers.

* Impacts... plan on periodic low visibility affecting travel.

* Winds... northwest 20 to 25 mph with gusts up to 35 mph.

Precautionary/preparedness actions...

A Winter Weather Advisory means that visibilities will be limited
due to strong winds and bands of snow showers. Use caution when
traveling... especially in open areas.